Time;durP1;ratioP1;P1;durP2;ratioP2;P2;SDS_P1;SDS_P2;PMS_P1;PMS_P2;Temp;Humidity;BMP_temperature;BMP_pressure;BME280_temperature;BME280_humidity;BME280_pressure;Samples;Min_cycle;Max_cycle;Signal;HPM_P1;HPM_P2
2023/12/15 00:01:15;;;;;;;26.40;13.65;;;5.80;99.90;;;;;;6145091;23;20405;-35
2023/12/15 00:03:41;;;;;;;27.88;14.90;;;5.90;99.90;;;;;;6147966;23;20025;-35
2023/12/15 00:06:07;;;;;;;29.75;14.55;;;5.80;99.90;;;;;;6146094;23;20018;-35
2023/12/15 00:08:33;;;;;;;31.15;15.77;;;5.90;99.90;;;;;;6144130;23;20029;-34
2023/12/15 00:10:59;;;;;;;26.67;14.00;;;5.90;99.90;;;;;;6146074;23;20404;-35
2023/12/15 00:13:25;;;;;;;32.25;16.08;;;5.90;99.90;;;;;;6146491;23;20405;-35
2023/12/15 00:15:51;;;;;;;29.52;16.70;;;5.90;99.90;;;;;;6144123;23;20021;-34
2023/12/15 00:18:16;;;;;;;34.70;15.70;;;5.90;99.90;;;;;;6144809;23;20160;-35
2023/12/15 00:20:42;;;;;;;34.03;17.58;;;5.90;99.90;;;;;;6147457;23;20021;-35
2023/12/15 00:23:08;;;;;;;32.42;17.42;;;5.90;99.90;;;;;;6145416;23;20033;-34
2023/12/15 00:25:34;;;;;;;29.35;16.70;;;5.90;99.90;;;;;;6166627;23;20417;-34
2023/12/15 00:27:59;;;;;;;36.10;17.02;;;6.00;99.90;;;;;;6174880;23;20032;-35
2023/12/15 00:30:25;;;;;;;32.90;17.35;;;6.00;99.90;;;;;;6175073;23;20021;-34
2023/12/15 00:32:51;;;;;;;37.50;19.08;;;6.00;99.90;;;;;;6175584;23;20028;-35
2023/12/15 00:35:17;;;;;;;34.75;19.20;;;6.00;99.90;;;;;;6174993;23;20052;-35
2023/12/15 00:37:42;;;;;;;34.25;17.63;;;6.10;99.90;;;;;;6176191;23;20055;-34
2023/12/15 00:40:10;;;;;;;35.05;18.17;;;6.10;99.90;;;;;;6149186;23;20025;-34
2023/12/15 00:42:36;;;;;;;39.10;18.77;;;6.10;99.90;;;;;;6175600;23;20021;-34
2023/12/15 00:45:02;;;;;;;32.28;18.23;;;6.10;99.90;;;;;;6176641;23;20024;-34
2023/12/15 00:47:27;;;;;;;30.08;18.30;;;6.10;99.90;;;;;;6178446;23;20479;-34
2023/12/15 00:49:53;;;;;;;37.88;18.23;;;6.10;99.90;;;;;;6178854;23;20028;-35
2023/12/15 00:52:19;;;;;;;31.02;18.08;;;6.10;99.90;;;;;;6177549;23;20025;-35
2023/12/15 00:54:44;;;;;;;36.85;18.95;;;6.10;99.90;;;;;;6179110;23;20338;-35
2023/12/15 00:57:10;;;;;;;36.95;17.75;;;6.10;99.90;;;;;;6177698;23;20088;-36
2023/12/15 00:59:36;;;;;;;31.23;18.77;;;6.10;99.90;;;;;;6178230;23;20021;-34
2023/12/15 01:02:01;;;;;;;35.20;18.58;;;6.20;99.90;;;;;;6178157;23;20024;-34
2023/12/15 01:04:27;;;;;;;39.22;18.05;;;6.20;99.90;;;;;;6151961;23;20475;-35
2023/12/15 01:06:53;;;;;;;30.30;16.85;;;6.20;99.90;;;;;;6177843;23;20098;-35
2023/12/15 01:09:18;;;;;;;36.00;17.52;;;6.20;99.90;;;;;;6177811;23;20020;-34
2023/12/15 01:11:44;;;;;;;34.38;17.35;;;6.20;99.90;;;;;;6177627;23;20027;-35
2023/12/15 01:14:10;;;;;;;34.13;18.55;;;6.20;99.90;;;;;;6177735;23;20116;-35
2023/12/15 01:16:48;;;;;;;37.25;17.40;;;6.20;99.90;;;;;;6178936;23;20025;-35
2023/12/15 01:19:15;;;;;;;32.20;16.52;;;6.30;99.90;;;;;;6177798;23;20544;-35
2023/12/15 01:21:41;;;;;;;37.80;17.13;;;6.30;99.90;;;;;;6177784;23;20021;-35
2023/12/15 01:24:07;;;;;;;37.20;16.48;;;6.30;99.90;;;;;;6175451;23;20530;-35
2023/12/15 01:26:32;;;;;;;29.50;16.55;;;6.30;99.90;;;;;;6179133;23;20395;-34
2023/12/15 01:28:58;;;;;;;38.25;17.63;;;6.30;99.90;;;;;;6178294;23;20017;-34
2023/12/15 01:31:24;;;;;;;28.08;17.38;;;6.30;99.90;;;;;;6153884;23;20025;-35
2023/12/15 01:33:49;;;;;;;31.98;17.27;;;6.30;99.90;;;;;;6178137;23;20317;-35
2023/12/15 01:36:16;;;;;;;33.72;17.55;;;6.30;99.90;;;;;;6176743;23;20091;-34
2023/12/15 01:38:42;;;;;;;33.70;16.83;;;6.30;99.90;;;;;;6178220;23;20029;-36
2023/12/15 01:41:07;;;;;;;37.72;18.25;;;6.30;99.90;;;;;;6177636;23;20067;-34
2023/12/15 01:43:33;;;;;;;37.30;17.80;;;6.30;99.90;;;;;;6176976;23;20021;-35
2023/12/15 01:45:59;;;;;;;34.92;18.13;;;6.30;99.90;;;;;;6176592;23;20021;-34
2023/12/15 01:48:25;;;;;;;34.63;18.00;;;6.30;99.90;;;;;;6177335;23;20024;-34
2023/12/15 01:50:51;;;;;;;39.58;18.13;;;6.30;99.90;;;;;;6176941;23;20017;-34
2023/12/15 01:53:16;;;;;;;33.03;17.63;;;6.30;99.90;;;;;;6177383;23;20487;-35
2023/12/15 01:55:43;;;;;;;31.98;17.38;;;6.20;99.90;;;;;;6176919;23;20021;-34
2023/12/15 01:58:11;;;;;;;34.03;17.73;;;6.20;99.90;;;;;;6176680;23;20524;-34
2023/12/15 02:00:37;;;;;;;37.85;18.30;;;6.20;99.90;;;;;;6151923;23;20025;-35
2023/12/15 02:03:03;;;;;;;30.83;16.30;;;6.20;99.90;;;;;;6176873;23;20048;-34
2023/12/15 02:05:28;;;;;;;36.08;18.23;;;6.20;99.90;;;;;;6178495;23;20045;-34
2023/12/15 02:07:55;;;;;;;37.72;19.58;;;6.20;99.90;;;;;;6177997;23;20190;-35
2023/12/15 02:10:21;;;;;;;42.33;18.55;;;6.20;99.90;;;;;;6176771;23;20028;-35
2023/12/15 02:12:46;;;;;;;32.25;17.70;;;6.20;99.90;;;;;;6177709;23;20095;-35
2023/12/15 02:15:12;;;;;;;38.70;18.73;;;6.20;99.90;;;;;;6176444;23;20017;-35
2023/12/15 02:17:39;;;;;;;46.40;18.60;;;6.20;99.90;;;;;;6177461;23;20406;-35
2023/12/15 02:20:06;;;;;;;43.20;19.15;;;6.20;99.90;;;;;;6176921;23;20143;-34
2023/12/15 02:22:31;;;;;;;41.92;18.80;;;6.30;99.90;;;;;;6177912;23;20021;-35
2023/12/15 02:24:57;;;;;;;44.13;20.42;;;6.30;99.90;;;;;;6177059;23;20585;-35
2023/12/15 02:27:23;;;;;;;48.13;20.77;;;6.30;99.90;;;;;;6178158;23;20013;-35
2023/12/15 02:29:48;;;;;;;45.65;20.70;;;6.30;99.90;;;;;;6177049;23;20455;-35
2023/12/15 02:32:14;;;;;;;44.90;20.70;;;6.30;99.90;;;;;;6177581;23;20017;-35
2023/12/15 02:34:40;;;;;;;46.15;19.83;;;6.30;99.90;;;;;;6177287;23;20021;-34
2023/12/15 02:37:06;;;;;;;47.97;20.40;;;6.30;99.90;;;;;;6177836;23;20044;-35
2023/12/15 02:39:32;;;;;;;58.17;20.17;;;6.40;99.90;;;;;;6179003;23;20017;-35
2023/12/15 02:41:58;;;;;;;46.33;21.10;;;6.40;99.90;;;;;;6177176;23;20460;-35
2023/12/15 02:44:23;;;;;;;46.33;19.27;;;6.40;99.90;;;;;;6177656;23;20028;-35
2023/12/15 02:46:49;;;;;;;50.22;20.42;;;6.40;99.90;;;;;;6179023;23;20254;-35
2023/12/15 02:49:15;;;;;;;49.15;20.27;;;6.40;99.90;;;;;;6178518;23;20013;-35
2023/12/15 02:51:40;;;;;;;43.45;20.95;;;6.30;99.90;;;;;;6177923;23;20013;-35
2023/12/15 02:54:06;;;;;;;47.60;20.42;;;6.20;99.90;;;;;;6178629;23;20017;-35
2023/12/15 02:56:32;;;;;;;51.90;21.17;;;6.20;99.90;;;;;;6159411;23;20018;-35
2023/12/15 02:58:57;;;;;;;50.60;20.65;;;6.20;99.90;;;;;;6147123;23;20081;-35
2023/12/15 03:01:23;;;;;;;50.65;19.35;;;6.10;99.90;;;;;;6115091;23;20018;-34
2023/12/15 03:03:49;;;;;;;45.72;19.63;;;6.10;99.90;;;;;;6146391;23;20048;-35
2023/12/15 03:06:14;;;;;;;47.58;18.92;;;6.10;99.90;;;;;;6148066;23;20189;-34
2023/12/15 03:08:40;;;;;;;48.08;20.00;;;6.10;99.90;;;;;;6147857;23;20029;-35
2023/12/15 03:11:06;;;;;;;43.97;19.80;;;6.00;99.90;;;;;;6147848;23;20100;-34
2023/12/15 03:13:32;;;;;;;52.63;21.13;;;6.00;99.90;;;;;;6146964;23;20436;-34
2023/12/15 03:16:18;;;;;;;51.65;20.17;;;6.00;99.90;;;;;;6148500;23;20476;-35
2023/12/15 03:18:43;;;;;;;56.00;21.75;;;6.00;99.90;;;;;;6145943;23;20021;-34
2023/12/15 03:21:09;;;;;;;49.47;20.63;;;6.00;99.90;;;;;;6171103;23;20036;-35
2023/12/15 03:23:35;;;;;;;48.72;20.92;;;6.00;99.90;;;;;;6175863;23;20029;-34
2023/12/15 03:26:01;;;;;;;46.97;20.75;;;6.00;99.90;;;;;;6177588;23;20396;-35
2023/12/15 03:28:26;;;;;;;45.40;19.20;;;6.00;99.90;;;;;;6177453;23;20032;-40
2023/12/15 03:30:52;;;;;;;43.17;20.38;;;6.00;99.90;;;;;;6176028;23;20029;-35
2023/12/15 03:33:18;;;;;;;58.03;21.90;;;6.00;99.90;;;;;;6178499;23;20079;-35
2023/12/15 03:35:43;;;;;;;46.97;19.25;;;6.00;99.90;;;;;;6175674;23;20017;-36
2023/12/15 03:38:11;;;;;;;52.85;22.25;;;6.00;99.90;;;;;;6178673;23;20531;-36
2023/12/15 03:40:37;;;;;;;59.10;22.17;;;6.00;99.90;;;;;;6175806;23;20029;-36
2023/12/15 03:43:03;;;;;;;60.30;22.25;;;6.00;99.90;;;;;;6177468;23;20021;-37
2023/12/15 03:45:28;;;;;;;56.78;22.30;;;6.00;99.90;;;;;;6174887;23;20035;-35
2023/12/15 03:47:54;;;;;;;56.10;22.48;;;6.00;99.90;;;;;;6178056;23;20079;-35
2023/12/15 03:50:20;;;;;;;50.20;20.52;;;6.00;99.90;;;;;;6177564;23;20324;-35
2023/12/15 03:52:45;;;;;;;56.08;20.55;;;6.00;99.90;;;;;;6176479;23;20024;-35
2023/12/15 03:55:11;;;;;;;51.33;22.40;;;6.00;99.90;;;;;;6176809;23;20025;-36
2023/12/15 03:57:36;;;;;;;55.55;22.70;;;6.00;99.90;;;;;;6176845;23;20075;-36
2023/12/15 04:00:03;;;;;;;57.15;21.48;;;6.00;99.90;;;;;;6177024;23;20096;-35
2023/12/15 04:02:28;;;;;;;56.50;20.58;;;5.90;99.90;;;;;;6176383;23;20535;-35
2023/12/15 04:04:55;;;;;;;52.88;21.40;;;5.90;99.90;;;;;;6176208;23;20025;-35
2023/12/15 04:07:20;;;;;;;59.00;21.85;;;5.90;99.90;;;;;;6177744;23;20029;-35
2023/12/15 04:09:46;;;;;;;59.28;21.58;;;5.90;99.90;;;;;;6150685;23;20467;-35
2023/12/15 04:12:12;;;;;;;54.20;21.45;;;6.00;99.90;;;;;;6177585;23;20032;-34
2023/12/15 04:14:37;;;;;;;56.08;22.65;;;6.00;99.90;;;;;;6176306;23;20024;-34
2023/12/15 04:17:03;;;;;;;58.13;23.60;;;6.00;99.90;;;;;;6178214;23;20356;-36
2023/12/15 04:19:30;;;;;;;60.17;21.98;;;6.00;99.90;;;;;;6175654;23;20364;-45
2023/12/15 04:21:55;;;;;;;60.42;23.92;;;5.90;99.90;;;;;;6180865;23;20021;-35
2023/12/15 04:24:21;;;;;;;71.40;23.10;;;5.90;99.90;;;;;;6178045;23;20063;-34
2023/12/15 04:26:47;;;;;;;57.75;21.48;;;5.90;99.90;;;;;;6178745;23;20028;-35
2023/12/15 04:29:12;;;;;;;62.13;22.75;;;5.80;99.90;;;;;;6179284;23;20371;-35
2023/12/15 04:31:38;;;;;;;64.65;22.20;;;5.80;99.90;;;;;;6177139;23;20341;-35
2023/12/15 04:34:04;;;;;;;50.67;21.63;;;5.70;99.90;;;;;;6178458;23;20017;-35
2023/12/15 04:36:29;;;;;;;63.65;24.27;;;5.70;99.90;;;;;;6152469;23;20439;-34
2023/12/15 04:38:55;;;;;;;62.65;23.48;;;5.70;99.90;;;;;;6179901;23;20025;-35
2023/12/15 04:41:24;;;;;;;51.05;20.98;;;5.60;99.90;;;;;;6179634;23;20051;-35
2023/12/15 04:43:50;;;;;;;63.78;23.13;;;5.50;99.90;;;;;;6178720;23;20012;-35
2023/12/15 04:46:29;;;;;;;59.03;22.48;;;5.50;99.90;;;;;;6178251;23;20040;-35
2023/12/15 04:48:59;;;;;;;59.20;22.67;;;5.50;99.90;;;;;;6159407;23;20025;-35
2023/12/15 04:51:25;;;;;;;75.05;25.98;;;5.50;99.90;;;;;;6149143;23;20052;-35
2023/12/15 04:53:51;;;;;;;66.10;24.02;;;5.50;99.90;;;;;;6149211;23;20025;-37
2023/12/15 04:56:17;;;;;;;68.15;24.92;;;5.40;99.90;;;;;;6148759;23;20033;-34
2023/12/15 04:58:44;;;;;;;66.72;23.23;;;5.40;99.90;;;;;;6147670;23;20361;-35
2023/12/15 05:01:12;;;;;;;65.20;23.52;;;5.40;99.90;;;;;;6148676;23;20025;-35
2023/12/15 05:03:39;;;;;;;63.35;23.40;;;5.40;99.90;;;;;;6148854;23;20017;-34
2023/12/15 05:06:05;;;;;;;66.55;24.58;;;5.40;99.90;;;;;;6122512;23;20468;-34
2023/12/15 05:08:30;;;;;;;70.65;23.35;;;5.30;99.90;;;;;;6149738;23;20039;-35
2023/12/15 05:10:57;;;;;;;72.30;26.10;;;5.30;99.90;;;;;;6147992;23;20457;-35
2023/12/15 05:13:22;;;;;;;67.95;23.08;;;5.30;99.90;;;;;;6148854;23;20457;-35
2023/12/15 05:15:48;;;;;;;74.65;26.20;;;5.40;99.90;;;;;;6148750;23;20017;-35
2023/12/15 05:18:14;;;;;;;63.90;22.73;;;5.30;99.90;;;;;;6149399;23;20017;-35
2023/12/15 05:20:39;;;;;;;65.95;23.27;;;5.40;99.90;;;;;;6149054;23;20087;-35
2023/12/15 05:23:05;;;;;;;79.85;26.98;;;5.40;99.90;;;;;;6148951;23;20480;-35
2023/12/15 05:25:32;;;;;;;67.72;24.15;;;5.40;99.90;;;;;;6136961;23;20025;-34
2023/12/15 05:27:58;;;;;;;74.57;26.70;;;5.40;99.90;;;;;;6147436;23;20474;-34
2023/12/15 05:30:23;;;;;;;84.03;26.50;;;5.40;99.90;;;;;;6122013;23;20022;-35
2023/12/15 05:32:49;;;;;;;75.70;24.17;;;5.40;99.90;;;;;;6149021;23;20417;-35
2023/12/15 05:35:15;;;;;;;81.68;26.67;;;5.30;99.90;;;;;;6147821;23;20063;-35
2023/12/15 05:37:40;;;;;;;83.00;26.05;;;5.30;99.90;;;;;;6148175;23;20040;-35
2023/12/15 05:40:09;;;;;;;94.32;28.58;;;5.20;99.90;;;;;;6148012;23;20021;-34
2023/12/15 05:42:35;;;;;;;84.25;26.33;;;5.20;99.90;;;;;;6148449;23;20473;-35
2023/12/15 05:45:01;;;;;;;86.95;25.40;;;5.20;99.90;;;;;;6147215;23;20029;-35
2023/12/15 05:47:27;;;;;;;66.72;23.25;;;5.10;99.90;;;;;;6149050;23;20025;-35
2023/12/15 05:49:53;;;;;;;65.10;23.73;;;5.00;99.90;;;;;;6148287;23;20339;-35
2023/12/15 05:52:19;;;;;;;72.55;23.20;;;5.00;99.90;;;;;;6149961;23;20054;-35
2023/12/15 05:54:45;;;;;;;78.63;25.63;;;5.10;99.90;;;;;;6146710;23;20072;-35
2023/12/15 05:57:11;;;;;;;70.15;24.60;;;5.00;99.90;;;;;;6150262;23;20017;-34
2023/12/15 05:59:36;;;;;;;76.40;24.20;;;5.10;99.90;;;;;;6148885;23;20523;-35
2023/12/15 06:02:02;;;;;;;75.32;23.40;;;5.10;99.90;;;;;;6148594;23;20936;-35
2023/12/15 06:04:28;;;;;;;79.40;25.40;;;5.20;99.90;;;;;;6148847;23;20040;-35
2023/12/15 06:06:53;;;;;;;83.10;25.98;;;5.20;99.90;;;;;;6144748;23;20018;-36
2023/12/15 06:09:20;;;;;;;113.60;31.38;;;5.10;99.90;;;;;;6147135;23;20354;-35
2023/12/15 06:11:45;;;;;;;127.90;31.42;;;5.10;99.90;;;;;;6147622;23;20353;-35
2023/12/15 06:14:11;;;;;;;145.55;33.70;;;5.10;99.90;;;;;;6123010;23;20036;-34
2023/12/15 06:16:37;;;;;;;87.68;24.65;;;5.10;99.90;;;;;;6149399;23;20350;-35
2023/12/15 06:19:02;;;;;;;124.03;30.63;;;5.00;99.90;;;;;;6149012;23;20021;-34
2023/12/15 06:21:28;;;;;;;124.47;29.90;;;5.00;99.90;;;;;;6149498;23;20092;-35
2023/12/15 06:23:55;;;;;;;148.02;26.92;;;5.00;99.90;;;;;;6148897;23;20036;-35
2023/12/15 06:26:25;;;;;;;348.10;32.80;;;5.00;99.90;;;;;;6175200;23;20029;-35
2023/12/15 06:28:53;;;;;;;473.38;39.92;;;4.90;99.90;;;;;;6177088;23;20028;-34
2023/12/15 06:31:19;;;;;;;370.00;32.25;;;4.80;99.90;;;;;;6177083;23;20021;-34
2023/12/15 06:33:44;;;;;;;295.63;27.08;;;4.80;99.90;;;;;;6174911;23;20043;-35
2023/12/15 06:36:11;;;;;;;330.55;27.52;;;4.70;99.90;;;;;;6175844;23;20017;-34
2023/12/15 06:38:37;;;;;;;359.65;32.45;;;4.70;99.90;;;;;;6175211;23;20021;-34
2023/12/15 06:41:06;;;;;;;389.30;31.27;;;4.60;99.90;;;;;;6174392;23;20448;-34
2023/12/15 06:43:32;;;;;;;297.13;25.25;;;4.70;99.90;;;;;;6174316;23;20028;-34
2023/12/15 06:45:58;;;;;;;205.15;20.95;;;4.60;99.90;;;;;;6173762;23;20068;-34
2023/12/15 06:48:24;;;;;;;211.93;22.90;;;4.60;99.90;;;;;;6177549;23;20027;-35
2023/12/15 06:50:49;;;;;;;227.48;27.30;;;4.60;99.90;;;;;;6178725;23;20092;-35
2023/12/15 06:53:17;;;;;;;140.88;16.63;;;4.60;99.90;;;;;;6177546;23;20418;-35
2023/12/15 06:55:43;;;;;;;197.80;20.17;;;4.60;99.90;;;;;;6177467;23;20029;-34
2023/12/15 06:58:08;;;;;;;211.77;22.60;;;4.60;99.90;;;;;;6178034;23;20091;-34
2023/12/15 07:00:34;;;;;;;113.20;16.75;;;4.60;99.90;;;;;;6176865;23;20045;-35
2023/12/15 07:03:00;;;;;;;194.05;20.40;;;4.50;99.90;;;;;;6175909;23;20021;-34
2023/12/15 07:05:25;;;;;;;150.63;22.30;;;4.60;99.90;;;;;;6177558;23;20025;-34
2023/12/15 07:07:51;;;;;;;75.82;18.02;;;4.60;99.90;;;;;;6177247;23;20035;-35
2023/12/15 07:10:17;;;;;;;70.05;18.10;;;4.60;99.90;;;;;;6177889;23;20104;-35
2023/12/15 07:12:43;;;;;;;83.15;21.75;;;4.60;99.90;;;;;;6177068;23;20025;-36
2023/12/15 07:15:09;;;;;;;45.22;15.40;;;4.60;99.90;;;;;;6175428;23;20031;-35
2023/12/15 07:17:34;;;;;;;62.92;20.38;;;4.70;99.90;;;;;;6177609;23;20473;-35
2023/12/15 07:20:00;;;;;;;55.03;19.13;;;4.70;99.90;;;;;;6176666;23;20032;-35
2023/12/15 07:22:26;;;;;;;41.05;16.38;;;4.70;99.90;;;;;;6177330;23;20029;-35
2023/12/15 07:24:51;;;;;;;56.55;17.42;;;4.80;99.90;;;;;;6175417;23;20474;-35
2023/12/15 07:27:17;;;;;;;43.13;16.60;;;4.80;99.90;;;;;;6177018;23;20465;-34
2023/12/15 07:29:43;;;;;;;55.20;19.70;;;4.80;99.90;;;;;;6176371;23;20024;-36
2023/12/15 07:32:08;;;;;;;42.65;17.63;;;4.80;99.90;;;;;;6176061;23;20024;-34
2023/12/15 07:34:34;;;;;;;56.10;19.95;;;4.90;99.90;;;;;;6178235;23;20025;-36
2023/12/15 07:37:00;;;;;;;53.47;21.23;;;4.90;99.90;;;;;;6173580;23;20017;-35
2023/12/15 07:39:25;;;;;;;60.45;21.92;;;5.00;99.90;;;;;;6179002;23;20020;-35
2023/12/15 07:41:51;;;;;;;61.97;22.30;;;5.10;99.90;;;;;;6177626;23;20104;-35
2023/12/15 07:44:17;;;;;;;58.95;23.10;;;5.20;99.90;;;;;;6177624;23;20044;-35
2023/12/15 07:46:44;;;;;;;73.20;23.60;;;5.20;99.90;;;;;;6175534;23;20017;-34
2023/12/15 07:49:10;;;;;;;60.20;20.63;;;5.30;99.90;;;;;;6176395;23;20021;-34
2023/12/15 07:51:36;;;;;;;56.97;20.73;;;5.30;99.90;;;;;;6174431;23;20017;-35
2023/12/15 07:54:02;;;;;;;60.17;20.80;;;5.30;99.90;;;;;;6174098;23;20400;-34
2023/12/15 07:56:28;;;;;;;58.97;19.40;;;5.40;99.90;;;;;;6175797;23;20016;-35
2023/12/15 07:58:56;;;;;;;57.42;19.73;;;5.40;99.90;;;;;;6149658;23;20021;-35
2023/12/15 08:01:23;;;;;;;59.28;19.55;;;5.40;99.90;;;;;;6176650;23;20461;-34
2023/12/15 08:03:52;;;;;;;69.40;21.13;;;5.50;99.90;;;;;;6175750;23;20021;-35
2023/12/15 08:06:18;;;;;;;60.03;21.17;;;5.50;99.90;;;;;;6174906;23;20071;-35
2023/12/15 08:08:47;;;;;;;54.00;18.75;;;5.60;99.90;;;;;;6174719;23;20048;-35
2023/12/15 08:11:13;;;;;;;57.85;20.08;;;5.60;99.90;;;;;;6174979;23;20494;-35
2023/12/15 08:13:40;;;;;;;54.63;19.55;;;5.60;99.90;;;;;;6148583;23;20017;-35
2023/12/15 08:16:07;;;;;;;45.85;18.42;;;5.60;99.90;;;;;;6174545;23;20047;-35
2023/12/15 08:18:33;;;;;;;51.20;18.23;;;5.70;99.90;;;;;;6176479;23;20092;-35
2023/12/15 08:21:00;;;;;;;59.53;17.60;;;5.70;99.90;;;;;;6174711;23;20048;-36
2023/12/15 08:23:26;;;;;;;55.58;17.17;;;5.70;99.90;;;;;;6176023;23;20036;-35
2023/12/15 08:25:52;;;;;;;53.80;16.33;;;5.70;99.90;;;;;;6150535;23;20036;-35
2023/12/15 08:28:19;;;;;;;39.78;14.10;;;5.70;99.90;;;;;;6175270;23;20024;-35
2023/12/15 08:30:46;;;;;;;45.58;15.88;;;5.70;99.90;;;;;;6175985;23;20461;-35
2023/12/15 08:33:11;;;;;;;46.63;14.82;;;5.70;99.90;;;;;;6175299;23;20096;-35
2023/12/15 08:35:37;;;;;;;43.97;13.95;;;5.80;99.90;;;;;;6179237;23;20048;-35
2023/12/15 08:38:03;;;;;;;37.63;13.40;;;5.80;99.90;;;;;;6177021;23;20041;-35
2023/12/15 08:40:29;;;;;;;42.90;13.77;;;5.80;99.90;;;;;;6178552;23;20033;-35
2023/12/15 08:42:55;;;;;;;47.45;15.57;;;5.90;99.90;;;;;;6176861;23;20076;-37
2023/12/15 08:45:21;;;;;;;40.53;14.15;;;5.90;99.90;;;;;;6177932;23;20025;-35
2023/12/15 08:47:46;;;;;;;39.97;13.10;;;6.00;99.90;;;;;;6177746;23;20149;-36
2023/12/15 08:50:13;;;;;;;34.38;13.20;;;6.00;99.90;;;;;;6177612;23;20103;-36
2023/12/15 08:52:40;;;;;;;41.10;13.07;;;6.10;99.90;;;;;;6177767;23;20071;-35
2023/12/15 08:55:06;;;;;;;40.05;12.95;;;6.10;99.90;;;;;;6176867;23;20519;-35
2023/12/15 08:57:32;;;;;;;40.20;13.00;;;6.10;99.90;;;;;;6178577;23;20025;-35
2023/12/15 08:59:58;;;;;;;40.30;12.68;;;6.20;99.90;;;;;;6176455;23;20102;-35
2023/12/15 09:02:25;;;;;;;40.20;11.57;;;6.20;99.90;;;;;;6150386;23;20032;-35
2023/12/15 09:04:51;;;;;;;34.78;11.57;;;6.20;99.90;;;;;;6175581;23;20024;-35
2023/12/15 09:07:17;;;;;;;35.40;11.45;;;6.30;99.90;;;;;;6178970;23;20024;-35
2023/12/15 09:09:42;;;;;;;35.42;10.85;;;6.40;99.90;;;;;;6179772;23;20024;-35
2023/12/15 09:12:08;;;;;;;40.28;10.75;;;6.40;99.90;;;;;;6178642;23;20025;-35
2023/12/15 09:14:34;;;;;;;29.25;9.88;;;6.50;99.90;;;;;;6150536;23;20505;-35
2023/12/15 09:17:00;;;;;;;28.80;10.20;;;6.50;99.90;;;;;;6178312;23;20021;-35
2023/12/15 09:19:27;;;;;;;39.03;11.10;;;6.50;99.90;;;;;;6178858;23;20480;-35
2023/12/15 09:21:52;;;;;;;31.58;10.95;;;6.60;99.90;;;;;;6179880;23;20456;-37
2023/12/15 09:24:19;;;;;;;34.10;9.95;;;6.70;99.90;;;;;;6178712;23;20079;-35
2023/12/15 09:26:45;;;;;;;28.08;8.75;;;6.70;99.90;;;;;;6179628;23;20082;-35
2023/12/15 09:29:12;;;;;;;27.95;8.90;;;6.80;99.90;;;;;;6178316;23;20024;-34
2023/12/15 09:31:38;;;;;;;35.40;9.57;;;6.80;99.90;;;;;;6179182;23;20100;-35
2023/12/15 09:34:04;;;;;;;33.53;9.35;;;6.90;99.90;;;;;;6178887;23;20429;-34
2023/12/15 09:36:29;;;;;;;29.00;9.07;;;6.90;99.90;;;;;;6176843;23;20024;-34
2023/12/15 09:38:55;;;;;;;31.70;9.50;;;7.00;99.90;;;;;;6180454;23;20021;-38
2023/12/15 09:41:22;;;;;;;30.75;8.30;;;7.00;99.90;;;;;;6179208;23;20025;-36
2023/12/15 09:43:48;;;;;;;35.30;8.65;;;7.10;99.90;;;;;;6179351;23;20028;-35
2023/12/15 09:46:14;;;;;;;34.92;9.00;;;7.10;99.90;;;;;;6178298;23;20033;-34
2023/12/15 09:48:40;;;;;;;29.65;8.70;;;7.20;99.90;;;;;;6178818;23;20013;-34
2023/12/15 09:51:15;;;;;;;34.47;8.20;;;7.20;99.90;;;;;;6178544;23;20016;-35
2023/12/15 09:53:45;;;;;;;34.78;8.27;;;7.30;99.90;;;;;;6177800;23;20021;-34
2023/12/15 09:56:11;;;;;;;29.50;7.75;;;7.30;99.90;;;;;;6179072;23;20132;-35
2023/12/15 09:58:38;;;;;;;33.42;8.25;;;7.40;99.90;;;;;;6179248;23;20021;-35
2023/12/15 10:01:04;;;;;;;30.60;8.68;;;7.40;99.90;;;;;;6151910;23;20025;-35
2023/12/15 10:03:31;;;;;;;22.10;7.32;;;7.50;99.90;;;;;;6179834;23;20044;-35
2023/12/15 10:05:56;;;;;;;21.40;6.65;;;7.50;99.90;;;;;;6152556;23;20039;-35
2023/12/15 10:08:24;;;;;;;24.58;7.28;;;7.60;99.90;;;;;;6178883;23;20024;-35
2023/12/15 10:10:52;;;;;;;29.90;6.40;;;7.60;99.90;;;;;;6177570;23;20151;-35
2023/12/15 10:13:18;;;;;;;30.80;7.03;;;7.60;99.90;;;;;;6178684;23;20079;-35
2023/12/15 10:15:49;;;;;;;22.58;7.63;;;7.60;99.90;;;;;;6178847;23;20020;-35
2023/12/15 10:18:15;;;;;;;26.65;6.60;;;7.70;99.90;;;;;;6150972;23;20032;-34
2023/12/15 10:20:41;;;;;;;27.40;7.22;;;7.70;99.90;;;;;;6177880;23;20464;-35
2023/12/15 10:23:07;;;;;;;24.17;5.47;;;7.70;99.90;;;;;;6177511;23;20029;-35
2023/12/15 10:25:33;;;;;;;26.08;6.05;;;7.70;99.90;;;;;;6177988;23;20013;-35
2023/12/15 10:27:59;;;;;;;27.20;5.28;;;7.80;99.90;;;;;;6176841;23;20407;-35
2023/12/15 10:30:25;;;;;;;21.13;5.30;;;7.80;99.90;;;;;;6151034;23;20055;-35
2023/12/15 10:32:53;;;;;;;23.75;5.85;;;7.80;99.90;;;;;;6178185;23;20479;-35
2023/12/15 10:35:22;;;;;;;22.30;4.65;;;7.80;99.90;;;;;;6176753;23;20021;-35
2023/12/15 10:37:48;;;;;;;27.67;6.28;;;7.90;99.90;;;;;;6178681;23;20021;-35
2023/12/15 10:40:14;;;;;;;20.75;5.28;;;7.90;99.90;;;;;;6177727;23;20519;-35
2023/12/15 10:42:41;;;;;;;24.17;5.43;;;7.90;99.90;;;;;;6178436;23;20020;-35
2023/12/15 10:45:08;;;;;;;30.52;4.80;;;8.00;99.90;;;;;;6177448;23;20536;-35
2023/12/15 10:47:34;;;;;;;23.38;4.65;;;8.00;99.90;;;;;;6177379;23;20413;-35
2023/12/15 10:50:01;;;;;;;19.90;4.95;;;8.00;99.90;;;;;;6151056;23;20017;-42
2023/12/15 10:52:27;;;;;;;23.73;4.90;;;8.00;99.90;;;;;;6151763;23;20067;-35
2023/12/15 10:54:54;;;;;;;24.33;4.57;;;8.00;99.90;;;;;;6177473;23;20017;-35
2023/12/15 10:57:21;;;;;;;25.42;4.80;;;8.00;99.90;;;;;;6177838;23;20017;-35
2023/12/15 10:59:50;;;;;;;20.45;5.00;;;8.10;99.90;;;;;;6177265;23;20025;-35
2023/12/15 11:02:18;;;;;;;19.88;3.90;;;8.10;99.90;;;;;;6176817;23;20017;-35
2023/12/15 11:04:47;;;;;;;24.75;4.63;;;8.10;99.90;;;;;;6151112;23;20032;-35
2023/12/15 11:07:12;;;;;;;27.88;5.00;;;8.10;99.90;;;;;;6177174;23;20031;-35
2023/12/15 11:09:38;;;;;;;26.45;4.40;;;8.20;99.90;;;;;;6177904;23;20084;-34
2023/12/15 11:12:23;;;;;;;23.27;4.75;;;8.20;99.90;;;;;;6176399;23;20092;-34
2023/12/15 11:15:11;;;;;;;21.52;4.55;;;8.30;99.90;;;;;;6177569;23;20021;-35
2023/12/15 11:17:47;;;;;;;23.80;4.35;;;8.30;99.90;;;;;;6176470;23;20021;-35
2023/12/15 11:20:22;;;;;;;24.88;4.15;;;8.30;99.90;;;;;;6176893;23;20055;-35
2023/12/15 11:23:15;;;;;;;25.15;4.28;;;8.30;99.90;;;;;;6175653;23;20024;-35
2023/12/15 11:25:50;;;;;;;18.40;4.40;;;8.40;99.90;;;;;;6175760;23;20472;-35
2023/12/15 11:28:17;;;;;;;21.05;4.00;;;8.40;99.90;;;;;;6178222;23;20036;-37
2023/12/15 11:30:52;;;;;;;19.77;4.10;;;8.40;99.90;;;;;;6175447;23;20024;-35
2023/12/15 11:33:22;;;;;;;21.17;3.92;;;8.40;99.90;;;;;;6178009;23;20024;-35
2023/12/15 11:35:55;;;;;;;17.52;4.35;;;8.50;99.90;;;;;;6174576;23;20021;-35
2023/12/15 11:38:20;;;;;;;;;;;8.50;99.90;;;;;;6176738;23;20048;-35
2023/12/15 11:40:50;;;;;;;17.75;4.45;;;8.50;99.90;;;;;;6177526;23;22096;-35
2023/12/15 11:43:17;;;;;;;21.35;3.92;;;8.60;99.90;;;;;;6152234;23;20071;-34
2023/12/15 11:45:43;;;;;;;18.20;3.80;;;8.60;99.90;;;;;;6176440;23;20074;-35
2023/12/15 11:48:09;;;;;;;20.75;4.20;;;8.60;99.90;;;;;;6177360;23;20032;-35
2023/12/15 11:50:36;;;;;;;22.92;4.20;;;8.70;99.90;;;;;;6177987;23;20025;-37
2023/12/15 11:53:06;;;;;;;22.80;3.90;;;8.70;99.90;;;;;;6177312;23;20413;-35
2023/12/15 11:55:31;;;;;;;27.67;4.35;;;8.80;99.90;;;;;;6177319;23;20028;-35
2023/12/15 11:57:57;;;;;;;17.83;3.92;;;8.80;99.90;;;;;;6177758;23;20025;-35
2023/12/15 12:00:23;;;;;;;16.92;3.42;;;8.90;99.90;;;;;;6177855;23;20032;-35
2023/12/15 12:02:48;;;;;;;21.98;4.68;;;9.00;99.90;;;;;;6177933;23;20107;-35
2023/12/15 12:05:14;;;;;;;12.65;2.83;;;9.10;99.90;;;;;;6178116;23;20020;-35
2023/12/15 12:07:40;;;;;;;15.73;3.50;;;9.30;99.90;;;;;;6151805;23;20021;-35
2023/12/15 12:10:07;;;;;;;20.58;3.80;;;9.50;99.90;;;;;;6178263;23;20515;-35
2023/12/15 12:12:33;;;;;;;22.10;4.50;;;9.50;99.90;;;;;;6177970;23;20009;-35
2023/12/15 12:15:09;;;;;;;20.10;3.20;;;9.60;99.90;;;;;;6178325;23;20048;-36
2023/12/15 12:17:37;;;;;;;14.93;2.95;;;9.60;99.90;;;;;;6176066;23;20147;-35
2023/12/15 12:20:10;;;;;;;22.60;3.78;;;9.50;99.90;;;;;;6177738;23;20024;-35
2023/12/15 12:22:44;;;;;;;14.68;3.15;;;9.40;99.90;;;;;;6175181;23;20029;-35
2023/12/15 12:25:12;;;;;;;13.60;3.47;;;9.40;99.90;;;;;;6177336;23;20453;-36
2023/12/15 12:27:38;;;;;;;21.58;4.68;;;9.40;99.90;;;;;;6177602;23;20025;-34
2023/12/15 12:30:10;;;;;;;22.10;3.85;;;9.30;99.90;;;;;;6179259;23;20139;-36
2023/12/15 12:32:36;;;;;;;26.52;3.70;;;9.30;99.90;;;;;;6177004;23;20044;-34
2023/12/15 12:35:03;;;;;;;19.55;4.28;;;9.20;99.90;;;;;;6178508;23;20025;-34